Auvergne, Arkansas
Current Conditions -  °F | °C
As of 11:56 PM on Wednesday 26 Nov 2014 (Local Time) from KM19 Reporting Station
Clear Clear  
Wind Chill: 33°   Ceiling: Unl
Heat Index: 40°   Visibility: 10mi
Dew Point: 29°   Wind: 13mph
Humidity: 65%   Direction: 310°NW
Pressure: 30.26"   Gusts: NA
Location:  35.5678°N, 91.2073°W
Report Text: KM19 270556Z AUTO 31011KT 10SM CLR 04/M02 A3026 RMK AO2 53026 T00441016 10083 20044 401111011 SLP247
Loading
Personal Weather Stations






























Interactive Weather Map New forecast layout! Learn more

10-Day Weather Forecast

Advertisements
Track Severe Weather on mobile